Jackson Junction, Iowa
Current Conditions -  °F | °C
As of 4:15 AM on Saturday 20 Dec 2014 (Local Time) from KDEH Reporting Station
Overcast Overcast  
Wind Chill: 21°   Ceiling: 1100
Heat Index: 27°   Visibility: 7mi
Dew Point: 25°   Wind: 5mph
Humidity: 93%   Direction: 150°SSE
Pressure: 30.19"   Gusts: NA
Location:  43.0382°N, 92.0219°W
Report Text: KDEH 201015Z AUTO 15004KT 7SM OVC011 M03/M04 A3019 RMK AO2
Loading
Personal Weather Stations






























Interactive Weather Map New forecast layout! Learn more

10-Day Weather Forecast

Advertisements
Track Severe Weather on mobile